createdAt,value
2018-07-01T00:01:12.664Z,505.20
2018-07-01T00:03:42.577Z,543.20
2018-07-01T00:06:11.792Z,120.72
2018-07-01T00:08:41.088Z,80.17
2018-07-01T00:11:10.500Z,53.43
2018-07-01T00:13:39.836Z,85.25
2018-07-01T00:16:09.166Z,53.73
2018-07-01T00:18:38.744Z,68.57
2018-07-01T00:21:07.804Z,52.95
2018-07-01T00:23:36.800Z,52.75
2018-07-01T00:26:06.345Z,80.30
2018-07-01T00:28:35.468Z,40.67
2018-07-01T00:31:04.595Z,39.83
2018-07-01T00:33:34.277Z,42.23
2018-07-01T00:36:03.669Z,43.45
2018-07-01T00:38:32.830Z,24.85
2018-07-01T00:41:02.386Z,29.85
2018-07-01T00:43:31.817Z,21.00
2018-07-01T00:46:00.946Z,17.05
2018-07-01T00:48:30.642Z,19.27
2018-07-01T00:50:59.756Z,16.20
2018-07-01T00:53:29.195Z,56.70
2018-07-01T00:55:58.346Z,31.68
2018-07-01T00:58:27.643Z,52.17
2018-07-01T01:00:56.361Z,29.67
2018-07-01T01:03:25.382Z,21.00
2018-07-01T01:05:54.564Z,17.73
2018-07-01T01:08:23.863Z,17.42
2018-07-01T01:10:52.912Z,16.93
2018-07-01T01:13:22.090Z,12.33
2018-07-01T01:15:51.688Z,17.92
2018-07-01T01:18:20.841Z,15.35
2018-07-01T01:20:57.392Z,14.33
2018-07-01T01:23:26.522Z,14.70
2018-07-01T01:25:56.041Z,21.77
2018-07-01T01:28:25.561Z,35.28
2018-07-01T01:30:54.676Z,33.30
2018-07-01T01:33:23.837Z,58.25
2018-07-01T01:35:53.261Z,45.35
2018-07-01T01:38:23.670Z,35.20
2018-07-01T01:41:00.741Z,18.65
2018-07-01T01:43:36.387Z,35.80
2018-07-01T01:46:12.956Z,28.15
2018-07-01T01:49:47.417Z,32.42
2018-07-01T01:52:24.656Z,25.97
2018-07-01T01:57:02.039Z,22.55
2018-07-01T01:59:39.496Z,12.45
2018-07-01T02:02:14.397Z,26.60
2018-07-01T02:05:01.707Z,11.28
2018-07-01T02:08:04.821Z,12.60
2018-07-01T02:10:33.927Z,11.43
2018-07-01T02:13:04.943Z,11.00
2018-07-01T02:15:41.111Z,15.80
2018-07-01T02:18:10.653Z,12.98
2018-07-01T02:20:41.385Z,13.90
2018-07-01T02:23:15.330Z,21.02
2018-07-01T02:25:44.952Z,21.07
2018-07-01T02:28:14.291Z,17.10
2018-07-01T02:30:43.510Z,19.10
2018-07-01T02:33:13.215Z,21.55
2018-07-01T02:35:42.542Z,14.28
2018-07-01T02:38:12.031Z,13.43
2018-07-01T02:40:41.278Z,14.18
2018-07-01T02:43:10.982Z,22.10
2018-07-01T02:45:40.221Z,20.90
2018-07-01T02:48:09.458Z,33.80
2018-07-01T02:50:39.167Z,1274.65
2018-07-01T02:53:08.698Z,1067.50
2018-07-01T02:55:38.285Z,1246.50
2018-07-01T02:58:08.027Z,106.60
2018-07-01T03:00:37.462Z,68.75
2018-07-01T03:03:07.017Z,1303.73
2018-07-01T03:05:36.465Z,1303.23
2018-07-01T03:08:06.214Z,710.10
2018-07-01T03:10:35.908Z,993.25
2018-07-01T03:13:05.614Z,1183.68
2018-07-01T03:15:35.386Z,1124.92
2018-07-01T03:18:04.935Z,1197.90
2018-07-01T03:20:34.213Z,1284.22
2018-07-01T03:23:03.475Z,172.78
2018-07-01T03:25:33.150Z,1331.95
2018-07-01T03:28:02.605Z,1430.43
2018-07-01T03:30:31.872Z,1364.75
2018-07-01T03:33:01.081Z,478.70
2018-07-01T03:35:30.756Z,1506.93
2018-07-01T03:37:59.982Z,1428.53
2018-07-01T03:40:29.229Z,1227.55
2018-07-01T03:42:58.925Z,1151.80
2018-07-01T03:45:28.325Z,206.13
2018-07-01T03:47:57.677Z,171.72
2018-07-01T03:50:26.957Z,172.72
2018-07-01T03:52:57.090Z,184.70
2018-07-01T03:55:26.297Z,167.60
2018-07-01T03:57:55.584Z,131.78
2018-07-01T04:00:24.869Z,95.50
2018-07-01T04:02:54.470Z,43.77
2018-07-01T04:05:24.480Z,10.60
2018-07-01T04:07:53.773Z,7.80
2018-07-01T04:10:23.489Z,8.18
2018-07-01T04:12:52.763Z,7.67
2018-07-01T04:15:22.034Z,8.88
2018-07-01T04:17:51.915Z,12.03
2018-07-01T04:20:21.319Z,9.65
2018-07-01T04:22:50.590Z,12.95
2018-07-01T04:25:20.318Z,19.75
2018-07-01T04:27:49.621Z,602.58
2018-07-01T04:30:19.050Z,8.73
2018-07-01T04:32:48.984Z,8.35
2018-07-01T04:35:18.345Z,6.50
2018-07-01T04:37:47.562Z,8.17
2018-07-01T04:40:17.108Z,7.80
2018-07-01T04:42:46.650Z,9.10
2018-07-01T04:45:15.902Z,7.45
2018-07-01T04:47:45.649Z,5.17
2018-07-01T04:50:15.834Z,7.00
2018-07-01T04:52:45.055Z,6.85
2018-07-01T04:55:14.791Z,4.42
2018-07-01T04:57:44.019Z,4.70
2018-07-01T05:00:13.555Z,3.58
2018-07-01T05:02:43.242Z,4.50
2018-07-01T05:05:12.651Z,1554.57
2018-07-01T05:07:41.953Z,317.80
2018-07-01T05:10:11.594Z,113.03
2018-07-01T05:12:41.078Z,40.63
2018-07-01T05:15:10.307Z,61.50
2018-07-01T05:17:39.910Z,798.83
2018-07-01T05:20:09.135Z,219.20
2018-07-01T05:22:38.441Z,507.10
2018-07-01T05:25:08.203Z,507.75
2018-07-01T05:27:37.711Z,792.30
2018-07-01T05:30:06.930Z,519.97
2018-07-01T05:32:36.553Z,533.60
2018-07-01T05:35:05.786Z,560.15
2018-07-01T05:37:35.114Z,703.45
2018-07-01T05:40:05.188Z,1824.38
2018-07-01T05:42:34.462Z,1887.40
2018-07-01T05:45:04.393Z,1380.20
2018-07-01T05:47:33.793Z,2163.87
2018-07-01T05:50:03.322Z,1928.50
2018-07-01T05:52:32.679Z,1743.97
2018-07-01T05:55:02.353Z,1645.18
2018-07-01T05:57:31.838Z,58.70
2018-07-01T06:00:01.128Z,243.60
2018-07-01T06:02:46.219Z,189.07
2018-07-01T06:05:15.660Z,35.80
2018-07-01T06:07:46.288Z,131.97
2018-07-01T06:10:15.923Z,214.97
2018-07-01T06:12:45.214Z,700.58
2018-07-01T06:15:15.225Z,5.10
2018-07-01T06:17:44.756Z,5.42
2018-07-01T06:20:14.108Z,5.58
2018-07-01T06:22:44.252Z,5.10
2018-07-01T06:25:13.505Z,5.15
2018-07-01T06:27:42.792Z,2.92
2018-07-01T06:30:12.745Z,4.10
2018-07-01T06:32:42.445Z,4.30
2018-07-01T06:35:12.613Z,3.77
2018-07-01T06:37:42.838Z,4.97
2018-07-01T06:40:12.170Z,1.90
2018-07-01T06:42:41.717Z,3.30
2018-07-01T06:45:11.307Z,3.60
2018-07-01T06:47:40.537Z,6.53
2018-07-01T06:50:09.743Z,5.42
2018-07-01T06:52:39.584Z,3.75
2018-07-01T06:55:08.884Z,3.50
2018-07-01T06:57:38.196Z,2.92
2018-07-01T07:00:09.574Z,4.17
2018-07-01T07:02:39.002Z,7.40
2018-07-01T07:05:09.322Z,2.95
2018-07-01T07:07:39.028Z,3.77
2018-07-01T07:10:08.577Z,3.27
2018-07-01T07:12:40.309Z,3.25
2018-07-01T07:17:38.533Z,52.75
2018-07-01T07:20:10.337Z,3.52
2018-07-01T07:22:40.298Z,2.85
2018-07-01T07:25:11.577Z,33.78
2018-07-01T07:27:41.284Z,3.37
2018-07-01T07:30:11.124Z,5.95
2018-07-01T07:32:41.373Z,3.10
2018-07-01T07:35:10.896Z,4.70
2018-07-01T07:37:47.241Z,5.17
2018-07-01T07:40:16.579Z,2.23
2018-07-01T07:42:45.825Z,3.77
2018-07-01T07:45:19.599Z,3.07
2018-07-01T07:47:57.789Z,2.45
2018-07-01T07:50:27.889Z,4.30
2018-07-01T07:52:58.481Z,3.80
2018-07-01T07:55:28.919Z,3.27
2018-07-01T07:57:59.715Z,3.70
2018-07-01T08:00:31.293Z,4.20
2018-07-01T08:03:00.864Z,4.08
2018-07-01T08:05:30.404Z,1.90
2018-07-01T08:08:01.951Z,8.95
2018-07-01T08:10:32.965Z,3.10
2018-07-01T08:13:02.311Z,4.17
2018-07-01T08:15:31.618Z,3.40
2018-07-01T08:18:01.450Z,2.60
2018-07-01T08:20:30.865Z,4.85
2018-07-01T08:23:20.655Z,6.40
2018-07-01T08:25:51.729Z,7.62
2018-07-01T08:28:23.300Z,3.20
2018-07-01T08:30:52.930Z,12.25
2018-07-01T08:33:28.983Z,3.10
2018-07-01T08:35:59.981Z,1767.80
